sensor_id;sensor_type;location;lat;lon;timestamp;P1;durP1;ratioP1;P2;durP2;ratioP2
68765;SDS011;55756;45.582;11.484;2023-10-31T00:02:16;15.95;;;4.88;;
68765;SDS011;55756;45.582;11.484;2023-10-31T00:04:42;11.43;;;4.68;;
68765;SDS011;55756;45.582;11.484;2023-10-31T00:07:08;15.85;;;4.80;;
68765;SDS011;55756;45.582;11.484;2023-10-31T00:09:33;14.40;;;4.50;;
68765;SDS011;55756;45.582;11.484;2023-10-31T00:11:59;15.70;;;4.88;;
68765;SDS011;55756;45.582;11.484;2023-10-31T00:14:25;13.05;;;4.40;;
68765;SDS011;55756;45.582;11.484;2023-10-31T00:16:51;16.30;;;4.70;;
68765;SDS011;55756;45.582;11.484;2023-10-31T00:19:17;13.85;;;4.05;;
68765;SDS011;55756;45.582;11.484;2023-10-31T00:21:43;15.05;;;4.60;;
68765;SDS011;55756;45.582;11.484;2023-10-31T00:24:09;14.50;;;4.40;;
68765;SDS011;55756;45.582;11.484;2023-10-31T00:26:35;14.85;;;4.25;;
68765;SDS011;55756;45.582;11.484;2023-10-31T00:29:00;11.25;;;3.88;;
68765;SDS011;55756;45.582;11.484;2023-10-31T00:31:26;13.57;;;4.20;;
68765;SDS011;55756;45.582;11.484;2023-10-31T00:33:52;13.70;;;3.75;;
68765;SDS011;55756;45.582;11.484;2023-10-31T00:36:17;11.00;;;3.85;;
68765;SDS011;55756;45.582;11.484;2023-10-31T00:38:43;12.80;;;4.15;;
68765;SDS011;55756;45.582;11.484;2023-10-31T00:41:09;12.48;;;4.10;;
68765;SDS011;55756;45.582;11.484;2023-10-31T00:43:34;14.23;;;4.50;;
68765;SDS011;55756;45.582;11.484;2023-10-31T00:46:02;14.93;;;4.70;;
68765;SDS011;55756;45.582;11.484;2023-10-31T00:48:28;13.20;;;4.70;;
68765;SDS011;55756;45.582;11.484;2023-10-31T00:50:54;15.32;;;4.45;;
68765;SDS011;55756;45.582;11.484;2023-10-31T00:53:20;11.68;;;4.32;;
68765;SDS011;55756;45.582;11.484;2023-10-31T00:55:45;12.13;;;4.30;;
68765;SDS011;55756;45.582;11.484;2023-10-31T00:58:12;10.82;;;4.57;;
68765;SDS011;55756;45.582;11.484;2023-10-31T01:00:38;11.13;;;4.40;;
68765;SDS011;55756;45.582;11.484;2023-10-31T01:03:03;12.80;;;4.97;;
68765;SDS011;55756;45.582;11.484;2023-10-31T01:05:29;12.15;;;4.80;;
68765;SDS011;55756;45.582;11.484;2023-10-31T01:07:55;13.57;;;4.85;;
68765;SDS011;55756;45.582;11.484;2023-10-31T01:10:21;13.90;;;5.18;;
68765;SDS011;55756;45.582;11.484;2023-10-31T01:12:47;12.40;;;4.95;;
68765;SDS011;55756;45.582;11.484;2023-10-31T01:15:13;11.88;;;5.03;;
68765;SDS011;55756;45.582;11.484;2023-10-31T01:17:39;12.73;;;5.07;;
68765;SDS011;55756;45.582;11.484;2023-10-31T01:20:05;11.55;;;5.20;;
68765;SDS011;55756;45.582;11.484;2023-10-31T01:22:31;12.60;;;5.25;;
68765;SDS011;55756;45.582;11.484;2023-10-31T01:24:57;10.65;;;5.15;;
68765;SDS011;55756;45.582;11.484;2023-10-31T01:27:23;11.07;;;5.07;;
68765;SDS011;55756;45.582;11.484;2023-10-31T01:29:48;10.52;;;5.07;;
68765;SDS011;55756;45.582;11.484;2023-10-31T01:32:14;9.90;;;5.10;;
68765;SDS011;55756;45.582;11.484;2023-10-31T01:34:40;12.70;;;5.15;;
68765;SDS011;55756;45.582;11.484;2023-10-31T01:37:06;14.63;;;5.80;;
68765;SDS011;55756;45.582;11.484;2023-10-31T01:39:31;13.65;;;5.47;;
68765;SDS011;55756;45.582;11.484;2023-10-31T01:41:57;12.40;;;5.00;;
68765;SDS011;55756;45.582;11.484;2023-10-31T01:44:23;12.05;;;4.90;;
68765;SDS011;55756;45.582;11.484;2023-10-31T01:46:50;13.18;;;5.07;;
68765;SDS011;55756;45.582;11.484;2023-10-31T01:49:16;10.25;;;5.03;;
68765;SDS011;55756;45.582;11.484;2023-10-31T01:51:42;13.43;;;4.80;;
68765;SDS011;55756;45.582;11.484;2023-10-31T01:54:09;10.05;;;4.90;;
68765;SDS011;55756;45.582;11.484;2023-10-31T01:56:36;13.05;;;5.20;;
68765;SDS011;55756;45.582;11.484;2023-10-31T01:59:04;12.07;;;4.88;;
68765;SDS011;55756;45.582;11.484;2023-10-31T02:01:32;12.07;;;4.97;;
68765;SDS011;55756;45.582;11.484;2023-10-31T02:04:01;9.15;;;4.50;;
68765;SDS011;55756;45.582;11.484;2023-10-31T02:06:27;11.48;;;4.68;;
68765;SDS011;55756;45.582;11.484;2023-10-31T02:08:55;11.07;;;4.50;;
68765;SDS011;55756;45.582;11.484;2023-10-31T02:11:21;9.50;;;4.63;;
68765;SDS011;55756;45.582;11.484;2023-10-31T02:13:47;9.23;;;4.50;;
68765;SDS011;55756;45.582;11.484;2023-10-31T02:16:13;9.20;;;4.60;;
68765;SDS011;55756;45.582;11.484;2023-10-31T02:18:38;8.77;;;4.30;;
68765;SDS011;55756;45.582;11.484;2023-10-31T02:21:04;7.70;;;4.05;;
68765;SDS011;55756;45.582;11.484;2023-10-31T02:23:30;9.25;;;3.92;;
68765;SDS011;55756;45.582;11.484;2023-10-31T02:25:57;7.40;;;3.58;;
68765;SDS011;55756;45.582;11.484;2023-10-31T02:28:22;9.20;;;4.00;;
68765;SDS011;55756;45.582;11.484;2023-10-31T02:30:52;7.80;;;4.03;;
68765;SDS011;55756;45.582;11.484;2023-10-31T02:33:19;8.75;;;4.28;;
68765;SDS011;55756;45.582;11.484;2023-10-31T02:35:45;6.65;;;3.75;;
68765;SDS011;55756;45.582;11.484;2023-10-31T02:38:11;8.52;;;4.07;;
68765;SDS011;55756;45.582;11.484;2023-10-31T02:40:37;7.13;;;4.00;;
68765;SDS011;55756;45.582;11.484;2023-10-31T02:43:03;7.43;;;4.15;;
68765;SDS011;55756;45.582;11.484;2023-10-31T02:45:29;8.70;;;4.20;;
68765;SDS011;55756;45.582;11.484;2023-10-31T02:47:55;6.72;;;4.10;;
68765;SDS011;55756;45.582;11.484;2023-10-31T02:50:21;7.53;;;4.05;;
68765;SDS011;55756;45.582;11.484;2023-10-31T02:52:46;7.18;;;3.97;;
68765;SDS011;55756;45.582;11.484;2023-10-31T02:55:12;7.25;;;4.20;;
68765;SDS011;55756;45.582;11.484;2023-10-31T02:57:38;10.43;;;4.20;;
68765;SDS011;55756;45.582;11.484;2023-10-31T03:00:05;8.10;;;4.20;;
68765;SDS011;55756;45.582;11.484;2023-10-31T03:02:32;7.35;;;4.25;;
68765;SDS011;55756;45.582;11.484;2023-10-31T03:04:57;8.80;;;4.32;;
68765;SDS011;55756;45.582;11.484;2023-10-31T03:07:23;7.28;;;4.32;;
68765;SDS011;55756;45.582;11.484;2023-10-31T03:09:49;6.82;;;4.30;;
68765;SDS011;55756;45.582;11.484;2023-10-31T03:12:15;8.32;;;4.10;;
68765;SDS011;55756;45.582;11.484;2023-10-31T03:14:40;6.93;;;4.07;;
68765;SDS011;55756;45.582;11.484;2023-10-31T03:17:07;7.50;;;4.30;;
68765;SDS011;55756;45.582;11.484;2023-10-31T03:19:33;6.65;;;4.15;;
68765;SDS011;55756;45.582;11.484;2023-10-31T03:21:59;6.93;;;4.03;;
68765;SDS011;55756;45.582;11.484;2023-10-31T03:24:25;7.20;;;4.28;;
68765;SDS011;55756;45.582;11.484;2023-10-31T03:26:50;7.70;;;4.20;;
68765;SDS011;55756;45.582;11.484;2023-10-31T03:29:16;7.35;;;4.18;;
68765;SDS011;55756;45.582;11.484;2023-10-31T03:31:42;9.88;;;4.93;;
68765;SDS011;55756;45.582;11.484;2023-10-31T03:34:08;8.40;;;5.22;;
68765;SDS011;55756;45.582;11.484;2023-10-31T03:36:34;8.10;;;5.60;;
68765;SDS011;55756;45.582;11.484;2023-10-31T03:39:00;9.00;;;6.00;;
68765;SDS011;55756;45.582;11.484;2023-10-31T03:41:26;9.15;;;6.40;;
68765;SDS011;55756;45.582;11.484;2023-10-31T03:43:51;9.43;;;6.40;;
68765;SDS011;55756;45.582;11.484;2023-10-31T03:46:17;11.43;;;7.28;;
68765;SDS011;55756;45.582;11.484;2023-10-31T03:48:43;10.88;;;7.28;;
68765;SDS011;55756;45.582;11.484;2023-10-31T03:51:09;11.18;;;7.63;;
68765;SDS011;55756;45.582;11.484;2023-10-31T03:53:34;11.23;;;7.57;;
68765;SDS011;55756;45.582;11.484;2023-10-31T03:56:00;12.02;;;8.45;;
68765;SDS011;55756;45.582;11.484;2023-10-31T03:58:27;12.82;;;8.60;;
68765;SDS011;55756;45.582;11.484;2023-10-31T04:00:52;13.38;;;8.68;;
68765;SDS011;55756;45.582;11.484;2023-10-31T04:03:18;12.82;;;8.98;;
68765;SDS011;55756;45.582;11.484;2023-10-31T04:05:44;14.00;;;10.30;;
68765;SDS011;55756;45.582;11.484;2023-10-31T04:08:10;15.65;;;9.82;;
68765;SDS011;55756;45.582;11.484;2023-10-31T04:10:35;15.88;;;10.93;;
68765;SDS011;55756;45.582;11.484;2023-10-31T04:13:01;16.42;;;10.77;;
68765;SDS011;55756;45.582;11.484;2023-10-31T04:15:27;17.90;;;11.55;;
68765;SDS011;55756;45.582;11.484;2023-10-31T04:17:52;16.73;;;11.15;;
68765;SDS011;55756;45.582;11.484;2023-10-31T04:20:18;17.67;;;11.57;;
68765;SDS011;55756;45.582;11.484;2023-10-31T04:22:44;16.17;;;11.35;;
68765;SDS011;55756;45.582;11.484;2023-10-31T04:25:10;15.20;;;11.10;;
68765;SDS011;55756;45.582;11.484;2023-10-31T04:27:35;17.13;;;11.98;;
68765;SDS011;55756;45.582;11.484;2023-10-31T04:30:01;17.40;;;12.25;;
68765;SDS011;55756;45.582;11.484;2023-10-31T04:32:27;20.67;;;12.90;;
68765;SDS011;55756;45.582;11.484;2023-10-31T04:34:53;19.08;;;12.77;;
68765;SDS011;55756;45.582;11.484;2023-10-31T04:37:19;20.80;;;13.48;;
68765;SDS011;55756;45.582;11.484;2023-10-31T04:39:44;19.33;;;13.82;;
68765;SDS011;55756;45.582;11.484;2023-10-31T04:42:10;23.88;;;15.30;;
68765;SDS011;55756;45.582;11.484;2023-10-31T04:44:36;22.58;;;14.98;;
68765;SDS011;55756;45.582;11.484;2023-10-31T04:47:01;23.95;;;15.05;;
68765;SDS011;55756;45.582;11.484;2023-10-31T04:49:27;23.33;;;15.80;;
68765;SDS011;55756;45.582;11.484;2023-10-31T04:51:53;25.10;;;16.20;;
68765;SDS011;55756;45.582;11.484;2023-10-31T04:54:18;21.67;;;15.82;;
68765;SDS011;55756;45.582;11.484;2023-10-31T04:56:44;24.95;;;15.90;;
68765;SDS011;55756;45.582;11.484;2023-10-31T04:59:12;19.92;;;14.65;;
68765;SDS011;55756;45.582;11.484;2023-10-31T05:01:37;22.35;;;14.77;;
68765;SDS011;55756;45.582;11.484;2023-10-31T05:04:03;20.92;;;14.77;;
68765;SDS011;55756;45.582;11.484;2023-10-31T05:06:29;20.25;;;13.77;;
68765;SDS011;55756;45.582;11.484;2023-10-31T05:08:55;20.95;;;13.85;;
68765;SDS011;55756;45.582;11.484;2023-10-31T05:11:20;17.52;;;13.20;;
68765;SDS011;55756;45.582;11.484;2023-10-31T05:13:46;19.58;;;13.63;;
68765;SDS011;55756;45.582;11.484;2023-10-31T05:16:12;19.77;;;14.55;;
68765;SDS011;55756;45.582;11.484;2023-10-31T05:18:38;23.23;;;15.55;;
68765;SDS011;55756;45.582;11.484;2023-10-31T05:21:04;25.70;;;16.52;;
68765;SDS011;55756;45.582;11.484;2023-10-31T05:23:30;23.88;;;16.05;;
68765;SDS011;55756;45.582;11.484;2023-10-31T05:25:56;22.92;;;15.30;;
68765;SDS011;55756;45.582;11.484;2023-10-31T05:28:22;22.17;;;15.35;;
68765;SDS011;55756;45.582;11.484;2023-10-31T05:30:48;22.00;;;15.25;;
68765;SDS011;55756;45.582;11.484;2023-10-31T05:33:15;23.27;;;15.60;;
68765;SDS011;55756;45.582;11.484;2023-10-31T05:35:41;20.77;;;14.48;;
68765;SDS011;55756;45.582;11.484;2023-10-31T05:38:07;22.48;;;15.05;;
68765;SDS011;55756;45.582;11.484;2023-10-31T05:40:33;23.33;;;14.98;;
68765;SDS011;55756;45.582;11.484;2023-10-31T05:43:00;23.27;;;15.32;;
68765;SDS011;55756;45.582;11.484;2023-10-31T05:45:30;21.98;;;15.27;;
68765;SDS011;55756;45.582;11.484;2023-10-31T05:47:56;22.48;;;16.08;;
68765;SDS011;55756;45.582;11.484;2023-10-31T05:50:22;24.35;;;16.55;;
68765;SDS011;55756;45.582;11.484;2023-10-31T05:52:47;23.95;;;17.38;;
68765;SDS011;55756;45.582;11.484;2023-10-31T05:55:13;25.50;;;18.27;;
68765;SDS011;55756;45.582;11.484;2023-10-31T05:57:39;26.92;;;19.27;;
68765;SDS011;55756;45.582;11.484;2023-10-31T06:00:05;29.83;;;19.98;;
68765;SDS011;55756;45.582;11.484;2023-10-31T06:02:37;28.20;;;21.77;;
68765;SDS011;55756;45.582;11.484;2023-10-31T06:05:03;30.48;;;21.30;;
68765;SDS011;55756;45.582;11.484;2023-10-31T06:07:29;31.77;;;22.15;;
68765;SDS011;55756;45.582;11.484;2023-10-31T06:10:03;28.35;;;21.20;;
68765;SDS011;55756;45.582;11.484;2023-10-31T06:12:29;29.25;;;19.98;;
68765;SDS011;55756;45.582;11.484;2023-10-31T06:14:55;27.27;;;18.77;;
68765;SDS011;55756;45.582;11.484;2023-10-31T06:17:35;28.48;;;19.23;;
68765;SDS011;55756;45.582;11.484;2023-10-31T06:20:01;25.95;;;18.92;;
68765;SDS011;55756;45.582;11.484;2023-10-31T06:22:27;29.25;;;18.92;;
68765;SDS011;55756;45.582;11.484;2023-10-31T06:24:52;27.40;;;19.35;;
68765;SDS011;55756;45.582;11.484;2023-10-31T06:27:19;28.85;;;20.38;;
68765;SDS011;55756;45.582;11.484;2023-10-31T06:29:44;30.67;;;22.38;;
68765;SDS011;55756;45.582;11.484;2023-10-31T06:32:10;34.47;;;23.42;;
68765;SDS011;55756;45.582;11.484;2023-10-31T06:34:36;47.13;;;30.52;;
68765;SDS011;55756;45.582;11.484;2023-10-31T06:37:01;51.13;;;32.83;;
68765;SDS011;55756;45.582;11.484;2023-10-31T06:39:28;63.50;;;42.97;;
68765;SDS011;55756;45.582;11.484;2023-10-31T06:41:54;54.08;;;37.80;;
68765;SDS011;55756;45.582;11.484;2023-10-31T06:44:21;47.85;;;32.00;;
68765;SDS011;55756;45.582;11.484;2023-10-31T06:46:47;41.35;;;28.25;;
68765;SDS011;55756;45.582;11.484;2023-10-31T06:49:12;36.95;;;24.48;;
68765;SDS011;55756;45.582;11.484;2023-10-31T06:51:38;31.83;;;21.17;;
68765;SDS011;55756;45.582;11.484;2023-10-31T06:54:04;29.35;;;20.70;;
68765;SDS011;55756;45.582;11.484;2023-10-31T06:56:30;30.95;;;18.92;;
68765;SDS011;55756;45.582;11.484;2023-10-31T06:58:55;30.85;;;19.15;;
68765;SDS011;55756;45.582;11.484;2023-10-31T07:01:21;25.27;;;17.05;;
68765;SDS011;55756;45.582;11.484;2023-10-31T07:03:47;25.00;;;17.67;;
68765;SDS011;55756;45.582;11.484;2023-10-31T07:06:13;24.40;;;16.83;;
68765;SDS011;55756;45.582;11.484;2023-10-31T07:08:38;23.83;;;16.38;;
68765;SDS011;55756;45.582;11.484;2023-10-31T07:11:04;24.48;;;16.13;;
68765;SDS011;55756;45.582;11.484;2023-10-31T07:13:30;23.55;;;15.82;;
68765;SDS011;55756;45.582;11.484;2023-10-31T07:15:56;23.42;;;15.95;;
68765;SDS011;55756;45.582;11.484;2023-10-31T07:18:21;21.83;;;15.35;;
68765;SDS011;55756;45.582;11.484;2023-10-31T07:20:47;23.40;;;14.90;;
68765;SDS011;55756;45.582;11.484;2023-10-31T07:23:13;23.50;;;14.93;;
68765;SDS011;55756;45.582;11.484;2023-10-31T07:25:38;23.20;;;15.07;;
68765;SDS011;55756;45.582;11.484;2023-10-31T07:28:04;21.85;;;14.77;;
68765;SDS011;55756;45.582;11.484;2023-10-31T07:30:30;20.58;;;13.88;;
68765;SDS011;55756;45.582;11.484;2023-10-31T07:32:55;20.27;;;13.18;;
68765;SDS011;55756;45.582;11.484;2023-10-31T07:35:21;20.00;;;13.00;;
68765;SDS011;55756;45.582;11.484;2023-10-31T07:37:47;24.27;;;13.27;;
68765;SDS011;55756;45.582;11.484;2023-10-31T07:40:13;21.92;;;13.02;;
68765;SDS011;55756;45.582;11.484;2023-10-31T07:42:39;22.02;;;13.25;;
68765;SDS011;55756;45.582;11.484;2023-10-31T07:45:05;19.45;;;11.73;;
68765;SDS011;55756;45.582;11.484;2023-10-31T07:47:31;21.25;;;12.25;;
68765;SDS011;55756;45.582;11.484;2023-10-31T07:49:58;18.30;;;11.50;;
68765;SDS011;55756;45.582;11.484;2023-10-31T07:52:24;21.05;;;11.82;;
68765;SDS011;55756;45.582;11.484;2023-10-31T07:54:51;16.98;;;11.00;;
68765;SDS011;55756;45.582;11.484;2023-10-31T07:57:17;18.23;;;11.27;;
68765;SDS011;55756;45.582;11.484;2023-10-31T07:59:42;16.92;;;10.13;;
68765;SDS011;55756;45.582;11.484;2023-10-31T08:02:08;15.70;;;9.95;;
68765;SDS011;55756;45.582;11.484;2023-10-31T08:04:34;17.70;;;10.00;;
68765;SDS011;55756;45.582;11.484;2023-10-31T08:07:00;15.32;;;7.95;;
68765;SDS011;55756;45.582;11.484;2023-10-31T08:09:26;13.95;;;4.43;;
68765;SDS011;55756;45.582;11.484;2023-10-31T08:11:52;9.85;;;2.92;;
68765;SDS011;55756;45.582;11.484;2023-10-31T08:14:18;10.75;;;2.65;;
68765;SDS011;55756;45.582;11.484;2023-10-31T08:16:47;11.15;;;2.22;;
68765;SDS011;55756;45.582;11.484;2023-10-31T08:19:12;9.23;;;2.20;;
68765;SDS011;55756;45.582;11.484;2023-10-31T08:21:39;8.98;;;1.80;;
68765;SDS011;55756;45.582;11.484;2023-10-31T08:24:05;7.75;;;1.73;;
68765;SDS011;55756;45.582;11.484;2023-10-31T08:26:31;10.15;;;2.10;;
68765;SDS011;55756;45.582;11.484;2023-10-31T08:28:57;9.60;;;1.80;;
68765;SDS011;55756;45.582;11.484;2023-10-31T08:31:25;7.03;;;1.42;;
68765;SDS011;55756;45.582;11.484;2023-10-31T08:33:51;8.18;;;1.60;;
68765;SDS011;55756;45.582;11.484;2023-10-31T08:36:17;7.00;;;1.50;;
68765;SDS011;55756;45.582;11.484;2023-10-31T08:38:42;8.90;;;1.50;;
68765;SDS011;55756;45.582;11.484;2023-10-31T08:41:08;6.00;;;1.30;;
68765;SDS011;55756;45.582;11.484;2023-10-31T08:43:34;6.28;;;1.30;;
68765;SDS011;55756;45.582;11.484;2023-10-31T08:45:59;7.85;;;1.70;;
68765;SDS011;55756;45.582;11.484;2023-10-31T08:48:26;6.53;;;1.70;;
68765;SDS011;55756;45.582;11.484;2023-10-31T08:50:51;6.20;;;1.70;;
68765;SDS011;55756;45.582;11.484;2023-10-31T08:53:17;5.30;;;1.48;;
68765;SDS011;55756;45.582;11.484;2023-10-31T08:55:44;6.43;;;1.50;;
68765;SDS011;55756;45.582;11.484;2023-10-31T08:58:14;5.38;;;1.50;;
68765;SDS011;55756;45.582;11.484;2023-10-31T09:00:43;6.90;;;1.90;;
68765;SDS011;55756;45.582;11.484;2023-10-31T09:03:09;4.75;;;1.90;;
68765;SDS011;55756;45.582;11.484;2023-10-31T09:05:34;6.90;;;1.80;;
68765;SDS011;55756;45.582;11.484;2023-10-31T09:08:00;5.90;;;1.60;;
68765;SDS011;55756;45.582;11.484;2023-10-31T09:10:27;4.80;;;1.50;;
68765;SDS011;55756;45.582;11.484;2023-10-31T09:12:52;4.95;;;1.67;;
68765;SDS011;55756;45.582;11.484;2023-10-31T09:15:18;3.42;;;1.42;;
68765;SDS011;55756;45.582;11.484;2023-10-31T09:17:44;4.38;;;1.50;;
68765;SDS011;55756;45.582;11.484;2023-10-31T09:20:10;4.00;;;1.38;;
68765;SDS011;55756;45.582;11.484;2023-10-31T09:22:36;3.03;;;1.20;;
68765;SDS011;55756;45.582;11.484;2023-10-31T09:25:02;4.63;;;1.20;;
68765;SDS011;55756;45.582;11.484;2023-10-31T09:27:29;2.47;;;1.00;;
68765;SDS011;55756;45.582;11.484;2023-10-31T09:29:54;2.58;;;1.00;;
68765;SDS011;55756;45.582;11.484;2023-10-31T09:32:20;2.58;;;1.00;;
68765;SDS011;55756;45.582;11.484;2023-10-31T09:34:46;2.75;;;1.10;;
68765;SDS011;55756;45.582;11.484;2023-10-31T09:37:12;3.22;;;1.00;;
68765;SDS011;55756;45.582;11.484;2023-10-31T09:39:37;3.25;;;0.98;;
68765;SDS011;55756;45.582;11.484;2023-10-31T09:42:04;3.70;;;1.13;;
68765;SDS011;55756;45.582;11.484;2023-10-31T09:44:32;3.83;;;1.10;;
68765;SDS011;55756;45.582;11.484;2023-10-31T09:46:58;2.35;;;0.93;;
68765;SDS011;55756;45.582;11.484;2023-10-31T09:49:25;3.60;;;1.00;;
68765;SDS011;55756;45.582;11.484;2023-10-31T09:51:51;4.13;;;0.95;;
68765;SDS011;55756;45.582;11.484;2023-10-31T09:54:17;3.42;;;1.00;;
68765;SDS011;55756;45.582;11.484;2023-10-31T09:56:43;2.95;;;0.82;;
68765;SDS011;55756;45.582;11.484;2023-10-31T09:59:09;2.70;;;1.10;;
68765;SDS011;55756;45.582;11.484;2023-10-31T10:01:35;4.18;;;0.98;;
68765;SDS011;55756;45.582;11.484;2023-10-31T10:04:01;3.53;;;1.00;;
68765;SDS011;55756;45.582;11.484;2023-10-31T10:06:27;4.25;;;1.10;;
68765;SDS011;55756;45.582;11.484;2023-10-31T10:08:55;3.30;;;0.90;;
68765;SDS011;55756;45.582;11.484;2023-10-31T10:11:21;3.03;;;1.02;;
68765;SDS011;55756;45.582;11.484;2023-10-31T10:13:47;1.65;;;0.95;;
68765;SDS011;55756;45.582;11.484;2023-10-31T10:16:14;2.75;;;1.00;;
68765;SDS011;55756;45.582;11.484;2023-10-31T10:18:56;3.35;;;1.00;;
68765;SDS011;55756;45.582;11.484;2023-10-31T10:21:22;4.13;;;1.00;;
68765;SDS011;55756;45.582;11.484;2023-10-31T10:23:51;1.90;;;0.88;;
68765;SDS011;55756;45.582;11.484;2023-10-31T10:26:17;1.85;;;0.93;;
68765;SDS011;55756;45.582;11.484;2023-10-31T10:28:46;2.83;;;0.93;;
68765;SDS011;55756;45.582;11.484;2023-10-31T10:31:14;3.55;;;1.05;;
68765;SDS011;55756;45.582;11.484;2023-10-31T10:33:40;3.17;;;1.10;;
68765;SDS011;55756;45.582;11.484;2023-10-31T10:36:06;3.83;;;1.10;;
68765;SDS011;55756;45.582;11.484;2023-10-31T10:38:37;4.57;;;1.10;;
68765;SDS011;55756;45.582;11.484;2023-10-31T10:41:04;2.97;;;1.00;;
68765;SDS011;55756;45.582;11.484;2023-10-31T10:43:35;6.30;;;1.20;;
68765;SDS011;55756;45.582;11.484;2023-10-31T10:46:03;4.72;;;1.05;;
68765;SDS011;55756;45.582;11.484;2023-10-31T10:48:30;3.72;;;1.30;;
68765;SDS011;55756;45.582;11.484;2023-10-31T10:51:21;4.53;;;1.10;;
68765;SDS011;55756;45.582;11.484;2023-10-31T10:53:57;4.28;;;1.25;;
68765;SDS011;55756;45.582;11.484;2023-10-31T10:56:46;3.35;;;1.33;;
68765;SDS011;55756;45.582;11.484;2023-10-31T10:59:21;5.80;;;1.30;;
68765;SDS011;55756;45.582;11.484;2023-10-31T11:02:01;4.15;;;1.35;;
68765;SDS011;55756;45.582;11.484;2023-10-31T11:04:31;3.80;;;1.10;;
68765;SDS011;55756;45.582;11.484;2023-10-31T11:06:58;5.18;;;1.42;;
68765;SDS011;55756;45.582;11.484;2023-10-31T11:09:25;5.70;;;1.30;;
68765;SDS011;55756;45.582;11.484;2023-10-31T11:11:51;3.25;;;1.08;;
68765;SDS011;55756;45.582;11.484;2023-10-31T11:14:18;3.42;;;1.20;;
68765;SDS011;55756;45.582;11.484;2023-10-31T11:16:48;3.50;;;0.90;;
68765;SDS011;55756;45.582;11.484;2023-10-31T11:19:17;2.90;;;1.10;;
68765;SDS011;55756;45.582;11.484;2023-10-31T11:21:52;4.35;;;1.00;;
68765;SDS011;55756;45.582;11.484;2023-10-31T11:24:33;3.15;;;0.90;;
68765;SDS011;55756;45.582;11.484;2023-10-31T11:27:02;3.25;;;0.93;;
68765;SDS011;55756;45.582;11.484;2023-10-31T11:29:32;2.33;;;1.00;;
68765;SDS011;55756;45.582;11.484;2023-10-31T11:31:59;2.72;;;1.00;;
68765;SDS011;55756;45.582;11.484;2023-10-31T11:34:29;3.58;;;1.20;;
68765;SDS011;55756;45.582;11.484;2023-10-31T11:40:28;3.42;;;1.20;;
68765;SDS011;55756;45.582;11.484;2023-10-31T11:42:38;4.13;;;1.20;;
68765;SDS011;55756;45.582;11.484;2023-10-31T11:45:07;4.70;;;1.02;;
68765;SDS011;55756;45.582;11.484;2023-10-31T11:47:49;4.43;;;1.10;;
68765;SDS011;55756;45.582;11.484;2023-10-31T11:50:17;3.45;;;1.00;;
68765;SDS011;55756;45.582;11.484;2023-10-31T11:52:43;2.83;;;1.00;;
68765;SDS011;55756;45.582;11.484;2023-10-31T11:55:11;3.00;;;1.10;;
68765;SDS011;55756;45.582;11.484;2023-10-31T11:57:40;3.05;;;1.00;;
68765;SDS011;55756;45.582;11.484;2023-10-31T12:00:06;2.55;;;1.00;;
68765;SDS011;55756;45.582;11.484;2023-10-31T12:02:56;3.80;;;1.00;;
68765;SDS011;55756;45.582;11.484;2023-10-31T12:05:25;3.92;;;1.10;;
68765;SDS011;55756;45.582;11.484;2023-10-31T12:07:51;2.58;;;1.08;;
68765;SDS011;55756;45.582;11.484;2023-10-31T12:10:26;4.85;;;1.10;;
68765;SDS011;55756;45.582;11.484;2023-10-31T12:12:56;4.18;;;1.00;;
68765;SDS011;55756;45.582;11.484;2023-10-31T12:15:23;3.50;;;1.10;;
68765;SDS011;55756;45.582;11.484;2023-10-31T12:17:49;4.40;;;1.27;;
68765;SDS011;55756;45.582;11.484;2023-10-31T12:20:15;4.93;;;1.20;;
68765;SDS011;55756;45.582;11.484;2023-10-31T12:22:42;3.13;;;1.23;;
68765;SDS011;55756;45.582;11.484;2023-10-31T12:25:09;6.93;;;1.25;;
68765;SDS011;55756;45.582;11.484;2023-10-31T12:30:11;5.95;;;1.00;;
68765;SDS011;55756;45.582;11.484;2023-10-31T12:32:41;2.10;;;0.90;;
68765;SDS011;55756;45.582;11.484;2023-10-31T12:35:11;3.67;;;1.10;;
68765;SDS011;55756;45.582;11.484;2023-10-31T12:37:48;3.38;;;1.10;;
68765;SDS011;55756;45.582;11.484;2023-10-31T12:40:18;2.08;;;0.90;;
68765;SDS011;55756;45.582;11.484;2023-10-31T12:42:46;3.60;;;1.02;;
68765;SDS011;55756;45.582;11.484;2023-10-31T12:45:13;2.85;;;1.00;;
68765;SDS011;55756;45.582;11.484;2023-10-31T12:47:39;6.40;;;1.17;;
68765;SDS011;55756;45.582;11.484;2023-10-31T12:50:15;3.15;;;1.00;;
68765;SDS011;55756;45.582;11.484;2023-10-31T12:52:48;2.72;;;0.95;;
68765;SDS011;55756;45.582;11.484;2023-10-31T12:55:21;2.25;;;0.95;;
68765;SDS011;55756;45.582;11.484;2023-10-31T12:57:48;2.00;;;0.80;;
68765;SDS011;55756;45.582;11.484;2023-10-31T13:00:16;2.70;;;0.97;;
68765;SDS011;55756;45.582;11.484;2023-10-31T13:02:49;3.58;;;0.90;;
68765;SDS011;55756;45.582;11.484;2023-10-31T13:05:16;1.45;;;0.80;;
68765;SDS011;55756;45.582;11.484;2023-10-31T13:07:51;3.33;;;0.80;;
68765;SDS011;55756;45.582;11.484;2023-10-31T13:10:20;3.50;;;1.00;;
68765;SDS011;55756;45.582;11.484;2023-10-31T13:12:48;1.65;;;0.80;;
68765;SDS011;55756;45.582;11.484;2023-10-31T13:15:19;2.00;;;0.80;;
68765;SDS011;55756;45.582;11.484;2023-10-31T13:17:46;2.97;;;0.82;;
68765;SDS011;55756;45.582;11.484;2023-10-31T13:20:12;0.60;;;0.57;;
68765;SDS011;55756;45.582;11.484;2023-10-31T13:22:39;2.38;;;0.80;;
68765;SDS011;55756;45.582;11.484;2023-10-31T13:25:06;1.15;;;0.70;;
68765;SDS011;55756;45.582;11.484;2023-10-31T13:27:42;1.52;;;0.80;;
68765;SDS011;55756;45.582;11.484;2023-10-31T13:30:10;2.10;;;0.73;;
68765;SDS011;55756;45.582;11.484;2023-10-31T13:32:37;2.40;;;0.90;;
68765;SDS011;55756;45.582;11.484;2023-10-31T13:35:04;3.03;;;0.90;;
68765;SDS011;55756;45.582;11.484;2023-10-31T13:37:30;2.88;;;0.88;;
68765;SDS011;55756;45.582;11.484;2023-10-31T13:39:56;4.45;;;0.90;;
68765;SDS011;55756;45.582;11.484;2023-10-31T13:42:21;1.45;;;0.80;;
68765;SDS011;55756;45.582;11.484;2023-10-31T13:44:47;4.85;;;0.93;;
68765;SDS011;55756;45.582;11.484;2023-10-31T13:47:14;3.75;;;0.90;;
68765;SDS011;55756;45.582;11.484;2023-10-31T13:49:39;3.17;;;0.95;;
68765;SDS011;55756;45.582;11.484;2023-10-31T13:52:05;3.33;;;0.90;;
68765;SDS011;55756;45.582;11.484;2023-10-31T13:54:32;2.65;;;0.80;;
68765;SDS011;55756;45.582;11.484;2023-10-31T13:56:58;5.43;;;0.90;;
68765;SDS011;55756;45.582;11.484;2023-10-31T13:59:24;3.35;;;1.20;;
68765;SDS011;55756;45.582;11.484;2023-10-31T14:01:50;3.50;;;1.38;;
68765;SDS011;55756;45.582;11.484;2023-10-31T14:04:16;2.67;;;1.08;;
68765;SDS011;55756;45.582;11.484;2023-10-31T14:06:43;3.13;;;1.42;;
68765;SDS011;55756;45.582;11.484;2023-10-31T14:09:09;3.83;;;1.52;;
68765;SDS011;55756;45.582;11.484;2023-10-31T14:11:37;2.50;;;1.10;;
68765;SDS011;55756;45.582;11.484;2023-10-31T14:14:03;2.85;;;1.10;;
68765;SDS011;55756;45.582;11.484;2023-10-31T14:16:40;6.22;;;2.08;;
68765;SDS011;55756;45.582;11.484;2023-10-31T14:19:08;5.30;;;1.40;;
68765;SDS011;55756;45.582;11.484;2023-10-31T14:21:34;3.40;;;1.23;;
68765;SDS011;55756;45.582;11.484;2023-10-31T14:24:00;5.10;;;1.20;;
68765;SDS011;55756;45.582;11.484;2023-10-31T14:26:28;2.78;;;1.08;;
68765;SDS011;55756;45.582;11.484;2023-10-31T14:28:54;2.92;;;1.30;;
68765;SDS011;55756;45.582;11.484;2023-10-31T14:31:21;5.43;;;1.50;;